Time;durP1;ratioP1;P1;durP2;ratioP2;P2;SDS_P1;SDS_P2;PMS_P1;PMS_P2;Temp;Humidity;BMP_temperature;BMP_pressure;BME280_temperature;BME280_humidity;BME280_pressure;Samples;Min_cycle;Max_cycle;Signal;HPM_P1;HPM_P2
2023/09/06 00:00:29;;;;;;;6.22;4.15;;;;;;;;;;10213837;28;20039;-70
2023/09/06 00:05:21;;;;;;;4.57;3.83;;;;;;;;;;10227556;28;20071;-71
2023/09/06 00:10:14;;;;;;;8.80;4.05;;;;;;;;;;10228100;28;20101;-71
2023/09/06 00:15:08;;;;;;;5.07;4.60;;;;;;;;;;10227544;28;20487;-70
2023/09/06 00:20:00;;;;;;;5.38;4.63;;;;;;;;;;10227094;28;20040;-70
2023/09/06 00:24:52;;;;;;;5.93;4.05;;;;;;;;;;10227016;28;20043;-71
2023/09/06 00:29:46;;;;;;;4.15;3.65;;;;;;;;;;10220977;28;20058;-69
2023/09/06 00:34:38;;;;;;;4.88;3.35;;;;;;;;;;10174481;28;20135;-70
2023/09/06 00:39:31;;;;;;;7.70;3.47;;;;;;;;;;10173252;28;20126;-70
2023/09/06 00:44:23;;;;;;;4.40;3.58;;;;;;;;;;10193175;28;20059;-69
2023/09/06 00:49:15;;;;;;;5.13;3.65;;;;;;;;;;10193576;28;20050;-70
2023/09/06 00:54:07;;;;;;;8.50;4.85;;;;;;;;;;10172452;28;20101;-71
2023/09/06 00:59:01;;;;;;;11.35;5.60;;;;;;;;;;10191001;28;20044;-70
2023/09/06 01:03:52;;;;;;;7.70;4.22;;;;;;;;;;10189783;28;20036;-70
2023/09/06 01:08:50;;;;;;;4.05;3.10;;;;;;;;;;10188895;28;20115;-70
2023/09/06 01:13:42;;;;;;;3.60;2.95;;;;;;;;;;10169582;28;20051;-69
2023/09/06 01:18:33;;;;;;;4.63;4.00;;;;;;;;;;10187200;28;20040;-71
2023/09/06 01:23:26;;;;;;;5.43;3.75;;;;;;;;;;10213967;28;20035;-71
2023/09/06 01:28:19;;;;;;;3.38;3.05;;;;;;;;;;10169672;28;20135;-71
2023/09/06 01:33:13;;;;;;;3.90;3.35;;;;;;;;;;10188576;28;20047;-70
2023/09/06 01:38:05;;;;;;;8.32;3.83;;;;;;;;;;10187701;28;20106;-71
2023/09/06 01:42:58;;;;;;;6.03;3.70;;;;;;;;;;10188245;28;20067;-71
2023/09/06 01:47:50;;;;;;;4.32;3.63;;;;;;;;;;10188649;28;20040;-71
2023/09/06 01:52:42;;;;;;;5.60;3.70;;;;;;;;;;10169147;28;20044;-70
2023/09/06 01:57:34;;;;;;;6.25;3.60;;;;;;;;;;10169785;28;20114;-70
2023/09/06 02:02:26;;;;;;;6.65;3.35;;;;;;;;;;10196450;28;20050;-70
2023/09/06 02:07:18;;;;;;;4.13;3.13;;;;;;;;;;10201047;28;20048;-70
2023/09/06 02:12:10;;;;;;;4.25;3.15;;;;;;;;;;10196302;28;20035;-68
2023/09/06 02:17:02;;;;;;;10.07;4.75;;;;;;;;;;10193600;28;20369;-71
2023/09/06 02:21:56;;;;;;;7.13;4.10;;;;;;;;;;10197746;28;20051;-71
2023/09/06 02:26:48;;;;;;;4.65;2.92;;;;;;;;;;10169999;28;20052;-71
2023/09/06 02:31:40;;;;;;;3.40;3.10;;;;;;;;;;10186531;28;20087;-71
2023/09/06 02:36:32;;;;;;;8.55;3.92;;;;;;;;;;10186907;28;20450;-71
2023/09/06 02:41:24;;;;;;;5.10;3.67;;;;;;;;;;10186506;28;20068;-70
2023/09/06 02:46:16;;;;;;;8.35;4.65;;;;;;;;;;10186204;28;20048;-70
2023/09/06 02:51:10;;;;;;;6.15;3.90;;;;;;;;;;10186750;28;20076;-69
2023/09/06 02:56:03;;;;;;;6.10;3.95;;;;;;;;;;10180612;28;20376;-71
2023/09/06 03:00:57;;;;;;;5.57;3.47;;;;;;;;;;10185179;28;20481;-71
2023/09/06 03:05:53;;;;;;;5.65;3.45;;;;;;;;;;10166483;28;20045;-70
2023/09/06 03:10:45;;;;;;;6.05;3.55;;;;;;;;;;10173189;28;20040;-71
2023/09/06 03:15:43;;;;;;;8.73;3.53;;;;;;;;;;10166386;28;20048;-70
2023/09/06 03:20:45;;;;;;;4.97;3.50;;;;;;;;;;10184874;28;20054;-68
2023/09/06 03:25:48;;;;;;;10.68;3.55;;;;;;;;;;10166564;28;20056;-69
2023/09/06 03:30:41;;;;;;;5.38;3.60;;;;;;;;;;10165676;28;20051;-70
2023/09/06 03:35:33;;;;;;;6.10;3.45;;;;;;;;;;10184353;28;20130;-71
2023/09/06 03:40:28;;;;;;;4.45;4.05;;;;;;;;;;10165635;28;20036;-71
2023/09/06 03:45:24;;;;;;;4.75;3.38;;;;;;;;;;10149716;28;20040;-69
2023/09/06 03:50:16;;;;;;;5.05;3.20;;;;;;;;;;10165180;28;20036;-71
2023/09/06 03:55:09;;;;;;;3.92;3.53;;;;;;;;;;10183324;28;20060;-69
2023/09/06 04:00:19;;;;;;;7.00;3.30;;;;;;;;;;10184585;28;20047;-70
2023/09/06 04:05:11;;;;;;;7.13;3.17;;;;;;;;;;10183573;28;20122;-70
2023/09/06 04:10:07;;;;;;;7.22;3.80;;;;;;;;;;10184090;28;20786;-71
2023/09/06 04:14:59;;;;;;;4.72;3.30;;;;;;;;;;10183702;28;20047;-70
2023/09/06 04:19:51;;;;;;;4.50;3.75;;;;;;;;;;10162379;28;20043;-71
2023/09/06 04:24:43;;;;;;;6.18;3.25;;;;;;;;;;10164225;28;20458;-70
2023/09/06 04:29:35;;;;;;;4.13;3.17;;;;;;;;;;10163358;28;20071;-69
2023/09/06 04:34:27;;;;;;;5.68;3.60;;;;;;;;;;10186091;28;20389;-70
2023/09/06 04:39:20;;;;;;;4.97;3.58;;;;;;;;;;10183194;28;20540;-70
2023/09/06 04:44:12;;;;;;;6.32;3.50;;;;;;;;;;10163629;28;20048;-71
2023/09/06 04:49:04;;;;;;;5.40;3.40;;;;;;;;;;10181992;28;20541;-69
2023/09/06 04:53:56;;;;;;;5.60;3.35;;;;;;;;;;10183697;28;20044;-71
2023/09/06 04:58:53;;;;;;;5.88;4.03;;;;;;;;;;10165599;28;20056;-70
2023/09/06 05:03:45;;;;;;;3.83;3.53;;;;;;;;;;10165731;28;20048;-68
2023/09/06 05:08:37;;;;;;;4.00;3.53;;;;;;;;;;10164189;28;20055;-68
2023/09/06 05:13:37;;;;;;;4.45;3.85;;;;;;;;;;10173498;28;20493;-70
2023/09/06 05:18:31;;;;;;;4.95;3.38;;;;;;;;;;10172545;28;20139;-70
2023/09/06 05:23:23;;;;;;;5.50;3.33;;;;;;;;;;10171479;28;20113;-69
2023/09/06 05:28:15;;;;;;;6.65;3.97;;;;;;;;;;10213635;28;20115;-70
2023/09/06 05:33:14;;;;;;;4.28;3.55;;;;;;;;;;10202062;28;20067;-70
2023/09/06 05:38:11;;;;;;;4.97;3.75;;;;;;;;;;10174469;28;20062;-69
2023/09/06 05:43:06;;;;;;;5.75;3.72;;;;;;;;;;10212547;28;20040;-69
2023/09/06 05:47:59;;;;;;;6.40;3.50;;;;;;;;;;10210857;28;20055;-72
2023/09/06 05:52:51;;;;;;;4.47;3.33;;;;;;;;;;10210604;28;20036;-71
2023/09/06 05:57:44;;;;;;;6.55;4.28;;;;;;;;;;10193648;28;20099;-70
2023/09/06 06:02:36;;;;;;;8.23;3.22;;;;;;;;;;10210442;28;20337;-72
2023/09/06 06:07:28;;;;;;;4.80;3.40;;;;;;;;;;10207182;28;20079;-72
2023/09/06 06:12:22;;;;;;;3.63;2.88;;;;;;;;;;10189458;28;20527;-71
2023/09/06 06:17:14;;;;;;;4.80;3.38;;;;;;;;;;10208589;28;20050;-71
2023/09/06 06:22:06;;;;;;;7.88;3.28;;;;;;;;;;10219650;28;20044;-72
2023/09/06 06:26:58;;;;;;;3.95;3.38;;;;;;;;;;10221502;28;20044;-72
2023/09/06 06:31:50;;;;;;;4.50;3.67;;;;;;;;;;10220224;28;20039;-71
2023/09/06 06:36:42;;;;;;;7.28;4.25;;;;;;;;;;10189391;28;20100;-70
2023/09/06 06:41:34;;;;;;;9.30;4.05;;;;;;;;;;10211396;28;20044;-71
2023/09/06 06:46:29;;;;;;;6.68;4.43;;;;;;;;;;10181881;28;20176;-72
2023/09/06 06:51:21;;;;;;;8.60;3.85;;;;;;;;;;10184171;28;20051;-71
2023/09/06 06:56:13;;;;;;;10.80;5.07;;;;;;;;;;10182403;28;20094;-72
2023/09/06 07:01:05;;;;;;;7.15;4.07;;;;;;;;;;10188366;28;20047;-71
2023/09/06 07:05:57;;;;;;;7.35;4.00;;;;;;;;;;10193077;28;20036;-71
2023/09/06 07:10:49;;;;;;;4.97;4.25;;;;;;;;;;10182089;28;20044;-72
2023/09/06 07:15:42;;;;;;;10.93;4.55;;;;;;;;;;10182593;28;20044;-71
2023/09/06 07:20:35;;;;;;;8.93;4.25;;;;;;;;;;10195722;28;20048;-73
2023/09/06 07:25:27;;;;;;;6.70;4.18;;;;;;;;;;10193881;28;20072;-73
2023/09/06 07:30:19;;;;;;;5.45;4.95;;;;;;;;;;10196702;28;20066;-72
2023/09/06 07:35:12;;;;;;;8.48;3.83;;;;;;;;;;10188168;28;20048;-72
2023/09/06 07:40:06;;;;;;;5.80;4.80;;;;;;;;;;10180763;28;20093;-72
2023/09/06 07:44:58;;;;;;;4.78;4.35;;;;;;;;;;10184285;28;20453;-71
2023/09/06 07:49:50;;;;;;;7.43;4.50;;;;;;;;;;10210475;28;20112;-72
2023/09/06 07:54:42;;;;;;;6.93;4.40;;;;;;;;;;10222723;28;20071;-70
2023/09/06 07:59:34;;;;;;;7.60;5.45;;;;;;;;;;10219565;28;20153;-72
2023/09/06 08:04:26;;;;;;;9.30;4.97;;;;;;;;;;10217734;28;20046;-73
2023/09/06 08:09:19;;;;;;;7.13;4.32;;;;;;;;;;10191794;28;20044;-71
2023/09/06 08:14:11;;;;;;;6.13;4.90;;;;;;;;;;10203956;28;20043;-74
2023/09/06 08:19:03;;;;;;;5.03;4.40;;;;;;;;;;10218418;28;20048;-74
2023/09/06 08:23:55;;;;;;;5.70;4.57;;;;;;;;;;10214536;28;20131;-73
2023/09/06 08:28:47;;;;;;;5.30;4.68;;;;;;;;;;10221701;28;20460;-72
2023/09/06 08:33:39;;;;;;;5.35;4.65;;;;;;;;;;10207996;28;20047;-72
2023/09/06 08:38:32;;;;;;;6.63;4.82;;;;;;;;;;10180849;28;20050;-73
2023/09/06 08:43:27;;;;;;;7.07;4.88;;;;;;;;;;10179898;28;20060;-74
2023/09/06 08:48:19;;;;;;;8.40;6.70;;;;;;;;;;10211380;28;20143;-72
2023/09/06 08:53:12;;;;;;;10.85;5.72;;;;;;;;;;10221133;28;20124;-72
2023/09/06 08:58:05;;;;;;;7.28;5.10;;;;;;;;;;10214585;28;20096;-74
2023/09/06 09:02:58;;;;;;;9.57;6.10;;;;;;;;;;10212662;28;20097;-73
2023/09/06 09:07:58;;;;;;;9.60;5.47;;;;;;;;;;10193261;28;20127;-72
2023/09/06 09:12:51;;;;;;;9.23;5.55;;;;;;;;;;10191999;28;20048;-72
2023/09/06 09:17:43;;;;;;;7.82;5.43;;;;;;;;;;10207809;28;20063;-71
2023/09/06 09:22:51;;;;;;;11.68;5.78;;;;;;;;;;10206798;28;20039;-72
2023/09/06 09:27:47;;;;;;;7.15;5.20;;;;;;;;;;10225715;28;20119;-72
2023/09/06 09:32:39;;;;;;;10.23;5.20;;;;;;;;;;10198486;28;20119;-72
2023/09/06 09:37:31;;;;;;;5.35;4.85;;;;;;;;;;10189787;28;20098;-74
2023/09/06 09:42:23;;;;;;;7.43;6.18;;;;;;;;;;10188079;28;20158;-73
2023/09/06 09:47:15;;;;;;;9.32;6.28;;;;;;;;;;10202482;28;20116;-73
2023/09/06 09:52:30;;;;;;;12.07;6.75;;;;;;;;;;10229430;28;20038;-72
2023/09/06 09:57:23;;;;;;;11.40;6.82;;;;;;;;;;10187771;28;20489;-72
2023/09/06 10:02:16;;;;;;;11.68;6.78;;;;;;;;;;10183989;28;20043;-73
2023/09/06 10:07:26;;;;;;;10.80;7.07;;;;;;;;;;10217919;28;20138;-73
2023/09/06 10:12:44;;;;;;;6.85;6.10;;;;;;;;;;10178055;28;20071;-72
2023/09/06 10:17:36;;;;;;;10.70;5.30;;;;;;;;;;10185780;28;20097;-73
2023/09/06 10:22:27;;;;;;;7.55;5.65;;;;;;;;;;10185957;28;20052;-73
2023/09/06 10:27:19;;;;;;;6.90;5.15;;;;;;;;;;10166421;28;20468;-73
2023/09/06 10:32:12;;;;;;;10.05;5.80;;;;;;;;;;10204130;28;20373;-72
2023/09/06 10:37:06;;;;;;;8.80;6.07;;;;;;;;;;10202915;28;20127;-72
2023/09/06 10:42:13;;;;;;;10.48;6.57;;;;;;;;;;10215600;28;20040;-73
2023/09/06 10:47:24;;;;;;;6.95;5.72;;;;;;;;;;10190644;28;20048;-72
2023/09/06 10:52:16;;;;;;;9.02;5.25;;;;;;;;;;10184361;28;20048;-73
2023/09/06 10:57:12;;;;;;;7.18;5.78;;;;;;;;;;10183811;28;20048;-74
2023/09/06 11:02:19;;;;;;;4.97;4.47;;;;;;;;;;10200213;28;20071;-72
2023/09/06 11:07:13;;;;;;;9.88;5.25;;;;;;;;;;10188677;28;20052;-73
2023/09/06 11:12:05;;;;;;;11.88;5.00;;;;;;;;;;10182791;28;20056;-73
2023/09/06 11:16:57;;;;;;;6.40;4.55;;;;;;;;;;10180460;28;20043;-72
2023/09/06 11:22:03;;;;;;;6.25;5.60;;;;;;;;;;10182132;28;20075;-73
2023/09/06 11:27:03;;;;;;;6.65;5.90;;;;;;;;;;10182010;28;20742;-72
2023/09/06 11:32:08;;;;;;;6.95;4.93;;;;;;;;;;10197836;28;20044;-73
2023/09/06 11:37:03;;;;;;;12.07;5.15;;;;;;;;;;10188625;28;20097;-73
2023/09/06 11:41:55;;;;;;;6.90;5.05;;;;;;;;;;10191788;28;20048;-73
2023/09/06 11:46:48;;;;;;;5.70;4.68;;;;;;;;;;10185825;28;20076;-72
2023/09/06 11:51:41;;;;;;;5.60;4.35;;;;;;;;;;10162149;28;20482;-73
2023/09/06 11:56:36;;;;;;;9.88;5.20;;;;;;;;;;10181094;28;20052;-71
2023/09/06 12:01:28;;;;;;;9.95;4.22;;;;;;;;;;10192526;28;20434;-73
2023/09/06 12:06:21;;;;;;;4.07;3.42;;;;;;;;;;10222438;28;20040;-72
2023/09/06 12:11:21;;;;;;;6.97;4.80;;;;;;;;;;10193743;28;20055;-71
2023/09/06 12:16:13;;;;;;;7.22;4.13;;;;;;;;;;10202325;28;20407;-71
2023/09/06 12:21:06;;;;;;;6.15;4.28;;;;;;;;;;10203478;28;20446;-73
2023/09/06 12:25:59;;;;;;;6.22;4.80;;;;;;;;;;10180549;28;20044;-73
2023/09/06 12:30:55;;;;;;;5.97;5.38;;;;;;;;;;10191694;28;20097;-74
2023/09/06 12:35:57;;;;;;;6.88;3.72;;;;;;;;;;10219403;28;20380;-72
2023/09/06 12:40:49;;;;;;;4.18;3.78;;;;;;;;;;10186374;28;20048;-73
2023/09/06 12:45:41;;;;;;;6.38;3.88;;;;;;;;;;10176016;28;20420;-73
2023/09/06 12:50:33;;;;;;;7.38;3.67;;;;;;;;;;10207341;28;20052;-73
2023/09/06 12:55:26;;;;;;;5.82;3.75;;;;;;;;;;10179547;28;20455;-73
2023/09/06 13:00:18;;;;;;;6.40;3.70;;;;;;;;;;10181996;28;20071;-69
2023/09/06 13:05:10;;;;;;;4.50;3.75;;;;;;;;;;10208510;28;20051;-71
2023/09/06 13:10:06;;;;;;;8.18;4.60;;;;;;;;;;10212743;28;20060;-73
2023/09/06 13:14:58;;;;;;;4.13;3.42;;;;;;;;;;10180725;28;20052;-71
2023/09/06 13:19:51;;;;;;;5.13;3.67;;;;;;;;;;10188560;28;20058;-71
2023/09/06 13:24:44;;;;;;;6.35;4.38;;;;;;;;;;10211932;28;20472;-73
2023/09/06 13:29:36;;;;;;;5.25;3.65;;;;;;;;;;10220713;28;20469;-72
2023/09/06 13:34:28;;;;;;;4.55;3.67;;;;;;;;;;10201853;28;20131;-70
2023/09/06 13:39:23;;;;;;;3.40;3.10;;;;;;;;;;10189434;28;20478;-73
2023/09/06 13:44:15;;;;;;;4.40;4.00;;;;;;;;;;10186957;28;20430;-72
2023/09/06 13:49:07;;;;;;;7.10;4.07;;;;;;;;;;10198184;28;20130;-72
2023/09/06 13:53:59;;;;;;;6.38;3.28;;;;;;;;;;10227262;28;20038;-71
2023/09/06 13:58:51;;;;;;;5.30;2.85;;;;;;;;;;10210769;28;20044;-73
2023/09/06 14:03:43;;;;;;;3.97;3.45;;;;;;;;;;10215752;28;20071;-71
2023/09/06 14:08:35;;;;;;;7.75;4.00;;;;;;;;;;10198040;28;20083;-73
2023/09/06 14:13:27;;;;;;;3.60;2.72;;;;;;;;;;10217147;28;20435;-72
2023/09/06 14:18:20;;;;;;;4.40;2.90;;;;;;;;;;10202769;28;20047;-73
2023/09/06 14:23:12;;;;;;;3.67;3.00;;;;;;;;;;10189182;28;20119;-72
2023/09/06 14:28:04;;;;;;;4.65;3.20;;;;;;;;;;10186849;28;20040;-72
2023/09/06 14:32:56;;;;;;;4.55;3.10;;;;;;;;;;10211850;28;20438;-72
2023/09/06 14:37:48;;;;;;;5.72;2.92;;;;;;;;;;10219710;28;20040;-73
2023/09/06 14:42:42;;;;;;;6.03;2.58;;;;;;;;;;10216254;28;20044;-74
2023/09/06 14:47:34;;;;;;;3.72;3.35;;;;;;;;;;10195386;28;20058;-73
2023/09/06 14:52:26;;;;;;;6.00;2.97;;;;;;;;;;10212334;28;20043;-72
2023/09/06 14:57:18;;;;;;;7.55;2.55;;;;;;;;;;10192263;28;20055;-74
2023/09/06 15:02:10;;;;;;;6.10;2.50;;;;;;;;;;10214745;28;20096;-74
2023/09/06 15:07:02;;;;;;;3.80;2.45;;;;;;;;;;10223366;28;20070;-73
2023/09/06 15:11:54;;;;;;;4.78;2.78;;;;;;;;;;10210026;28;20518;-71
2023/09/06 15:16:46;;;;;;;3.30;2.67;;;;;;;;;;10218847;28;20110;-73
2023/09/06 15:21:39;;;;;;;7.85;2.67;;;;;;;;;;10220626;27;20035;-73
2023/09/06 15:26:32;;;;;;;10.02;2.55;;;;;;;;;;10220312;28;20445;-74
2023/09/06 15:31:27;;;;;;;7.35;2.97;;;;;;;;;;10195906;28;20123;-73
2023/09/06 15:36:19;;;;;;;7.72;3.35;;;;;;;;;;10182455;28;20417;-72
2023/09/06 15:41:16;;;;;;;4.55;2.50;;;;;;;;;;10181929;28;20040;-73
2023/09/06 15:46:08;;;;;;;2.75;2.20;;;;;;;;;;10182425;28;20071;-72
2023/09/06 15:51:00;;;;;;;5.28;2.65;;;;;;;;;;10182089;28;20097;-72
2023/09/06 15:55:52;;;;;;;3.33;2.50;;;;;;;;;;10181602;28;20443;-72
2023/09/06 16:00:44;;;;;;;6.28;3.35;;;;;;;;;;10180499;28;20095;-71
2023/09/06 16:05:36;;;;;;;11.05;2.70;;;;;;;;;;10184508;28;20113;-71
2023/09/06 16:10:28;;;;;;;10.40;2.00;;;;;;;;;;10181948;28;20139;-71
2023/09/06 16:15:22;;;;;;;3.05;2.28;;;;;;;;;;10180673;28;20044;-72
2023/09/06 16:20:14;;;;;;;4.32;2.30;;;;;;;;;;10196398;28;20101;-72
2023/09/06 16:25:07;;;;;;;4.10;2.28;;;;;;;;;;10204749;28;20072;-73
2023/09/06 16:29:59;;;;;;;7.43;3.67;;;;;;;;;;10187507;28;20170;-72
2023/09/06 16:34:52;;;;;;;7.03;2.72;;;;;;;;;;10208013;28;20147;-73
2023/09/06 16:39:43;;;;;;;4.15;2.25;;;;;;;;;;10182600;28;20370;-72
2023/09/06 16:44:37;;;;;;;2.67;2.20;;;;;;;;;;10180548;28;20036;-71
2023/09/06 16:49:29;;;;;;;5.70;2.50;;;;;;;;;;10180960;28;20044;-70
2023/09/06 16:54:21;;;;;;;4.60;2.58;;;;;;;;;;10179536;28;20048;-71
2023/09/06 16:59:14;;;;;;;4.18;2.50;;;;;;;;;;10219301;28;20386;-75
2023/09/06 17:04:07;;;;;;;5.07;2.40;;;;;;;;;;10224228;28;20048;-74
2023/09/06 17:09:00;;;;;;;3.25;2.50;;;;;;;;;;10223730;28;20430;-74
2023/09/06 17:13:52;;;;;;;4.13;2.35;;;;;;;;;;10231534;28;20039;-74
2023/09/06 17:18:44;;;;;;;10.07;2.92;;;;;;;;;;10231691;28;20116;-76
2023/09/06 17:23:39;;;;;;;3.80;3.08;;;;;;;;;;10232463;28;20590;-73
2023/09/06 17:28:51;;;;;;;7.93;2.83;;;;;;;;;;10233296;28;20062;-74
2023/09/06 17:33:43;;;;;;;2.90;2.60;;;;;;;;;;10233470;28;20043;-73
2023/09/06 17:38:35;;;;;;;3.90;2.63;;;;;;;;;;10233713;28;20039;-73
2023/09/06 17:43:28;;;;;;;5.43;2.75;;;;;;;;;;10232623;28;20122;-73
2023/09/06 17:48:22;;;;;;;3.67;3.25;;;;;;;;;;10232854;28;20035;-72
2023/09/06 17:53:17;;;;;;;3.28;3.03;;;;;;;;;;10233068;28;20082;-73
2023/09/06 17:58:09;;;;;;;4.03;2.78;;;;;;;;;;10230538;28;20450;-73
2023/09/06 18:03:01;;;;;;;8.75;2.63;;;;;;;;;;10231940;28;20036;-73
2023/09/06 18:07:53;;;;;;;3.33;2.95;;;;;;;;;;10232171;28;20074;-73
2023/09/06 18:12:45;;;;;;;5.35;3.13;;;;;;;;;;10231958;28;20067;-72
2023/09/06 18:17:49;;;;;;;3.35;2.70;;;;;;;;;;10232499;28;20051;-72
2023/09/06 18:22:41;;;;;;;3.58;3.13;;;;;;;;;;10231481;28;20035;-72
2023/09/06 18:27:34;;;;;;;5.55;3.80;;;;;;;;;;10231074;28;20338;-72
2023/09/06 18:32:26;;;;;;;4.63;3.20;;;;;;;;;;10231281;28;20040;-72
2023/09/06 18:37:18;;;;;;;4.18;3.28;;;;;;;;;;10231473;28;20036;-71
2023/09/06 18:42:10;;;;;;;5.25;3.42;;;;;;;;;;10229160;28;20533;-72
2023/09/06 18:47:01;;;;;;;6.65;4.65;;;;;;;;;;10226310;28;20056;-72
2023/09/06 18:51:54;;;;;;;4.65;3.40;;;;;;;;;;10229378;28;20063;-72
2023/09/06 18:56:45;;;;;;;9.25;3.67;;;;;;;;;;10228936;28;20036;-72
2023/09/06 19:01:38;;;;;;;7.50;4.15;;;;;;;;;;10228989;28;20104;-71
2023/09/06 19:06:34;;;;;;;9.98;3.90;;;;;;;;;;10228635;28;20064;-71
2023/09/06 19:11:27;;;;;;;4.35;2.97;;;;;;;;;;10228812;27;20051;-74
2023/09/06 19:16:24;;;;;;;10.77;3.60;;;;;;;;;;10228572;28;20043;-69
2023/09/06 19:21:16;;;;;;;2.92;2.70;;;;;;;;;;10229226;28;20039;-68
2023/09/06 19:26:08;;;;;;;4.72;3.33;;;;;;;;;;10238028;27;20054;-71
2023/09/06 19:31:00;;;;;;;4.45;3.45;;;;;;;;;;10229382;28;20134;-70
2023/09/06 19:35:54;;;;;;;3.67;3.08;;;;;;;;;;10228839;28;20437;-71
2023/09/06 19:40:46;;;;;;;3.15;2.90;;;;;;;;;;10228318;28;20039;-71
2023/09/06 19:45:38;;;;;;;6.35;3.10;;;;;;;;;;10228976;28;20044;-70
2023/09/06 19:50:30;;;;;;;3.05;2.75;;;;;;;;;;10228258;28;20530;-71
2023/09/06 19:55:22;;;;;;;10.63;4.32;;;;;;;;;;10220027;28;20365;-71
2023/09/06 20:00:14;;;;;;;3.78;3.05;;;;;;;;;;10222446;28;20131;-71
2023/09/06 20:05:07;;;;;;;4.10;3.28;;;;;;;;;;10227647;28;20066;-71
2023/09/06 20:10:01;;;;;;;3.92;3.00;;;;;;;;;;10226649;28;20139;-73
2023/09/06 20:14:53;;;;;;;5.72;3.25;;;;;;;;;;10227933;28;20047;-72
2023/09/06 20:19:45;;;;;;;4.28;2.65;;;;;;;;;;10227833;28;20127;-72
2023/09/06 20:24:37;;;;;;;6.95;3.35;;;;;;;;;;10227384;28;20044;-70
2023/09/06 20:29:29;;;;;;;6.70;2.95;;;;;;;;;;10227473;28;20051;-71
2023/09/06 20:34:21;;;;;;;3.03;2.72;;;;;;;;;;10192598;28;20040;-72
2023/09/06 20:39:13;;;;;;;5.72;2.83;;;;;;;;;;10186304;28;20052;-72
2023/09/06 20:44:05;;;;;;;2.50;2.30;;;;;;;;;;10208380;28;20126;-72
2023/09/06 20:48:57;;;;;;;5.78;2.97;;;;;;;;;;10214212;28;20054;-72
2023/09/06 20:53:51;;;;;;;6.22;3.17;;;;;;;;;;10194030;28;20036;-72
2023/09/06 20:58:44;;;;;;;4.53;3.72;;;;;;;;;;10193587;28;20052;-70
2023/09/06 21:03:36;;;;;;;2.55;2.35;;;;;;;;;;10203039;28;20052;-71
2023/09/06 21:08:28;;;;;;;3.97;2.45;;;;;;;;;;10207301;28;20500;-71
2023/09/06 21:13:20;;;;;;;3.50;2.85;;;;;;;;;;10234019;28;20100;-69
2023/09/06 21:18:13;;;;;;;7.43;3.00;;;;;;;;;;10234119;28;20134;-72
2023/09/06 21:23:05;;;;;;;2.90;2.70;;;;;;;;;;10234499;28;20142;-72
2023/09/06 21:27:56;;;;;;;2.70;2.47;;;;;;;;;;10233620;28;20076;-72
2023/09/06 21:32:49;;;;;;;4.75;2.95;;;;;;;;;;10232810;28;20130;-71
2023/09/06 21:37:41;;;;;;;3.40;3.05;;;;;;;;;;10233800;28;20124;-70
2023/09/06 21:42:33;;;;;;;2.92;2.70;;;;;;;;;;10233120;28;20048;-71
2023/09/06 21:47:25;;;;;;;7.85;3.03;;;;;;;;;;10232937;28;20047;-71
2023/09/06 21:52:17;;;;;;;4.30;3.45;;;;;;;;;;10232279;28;20044;-72
2023/09/06 21:57:09;;;;;;;3.38;2.97;;;;;;;;;;10210170;28;20094;-71
2023/09/06 22:02:01;;;;;;;5.68;3.35;;;;;;;;;;10204914;28;20378;-71
2023/09/06 22:07:11;;;;;;;3.63;3.00;;;;;;;;;;10221268;28;20063;-70
2023/09/06 22:12:22;;;;;;;4.45;3.00;;;;;;;;;;10219234;28;20055;-69
2023/09/06 22:17:14;;;;;;;3.25;2.53;;;;;;;;;;10210160;28;20035;-69
2023/09/06 22:22:07;;;;;;;6.20;2.92;;;;;;;;;;10223502;28;20040;-71
2023/09/06 22:26:59;;;;;;;4.43;3.78;;;;;;;;;;10215028;28;20075;-71
2023/09/06 22:31:51;;;;;;;3.55;3.10;;;;;;;;;;10165319;28;20090;-71
2023/09/06 22:36:43;;;;;;;5.32;3.45;;;;;;;;;;10166190;28;20562;-70
2023/09/06 22:41:35;;;;;;;3.33;2.75;;;;;;;;;;10199694;28;20047;-70
2023/09/06 22:46:27;;;;;;;3.63;3.10;;;;;;;;;;10227052;28;20180;-70
2023/09/06 22:51:20;;;;;;;3.40;2.60;;;;;;;;;;10227928;28;20055;-70
2023/09/06 22:56:11;;;;;;;9.10;3.50;;;;;;;;;;10230218;28;20412;-71
2023/09/06 23:01:05;;;;;;;3.55;2.90;;;;;;;;;;10220411;28;20064;-71
2023/09/06 23:05:57;;;;;;;4.22;3.20;;;;;;;;;;10183300;28;20039;-70
2023/09/06 23:10:53;;;;;;;4.20;3.10;;;;;;;;;;10182515;28;20411;-71
2023/09/06 23:15:46;;;;;;;5.10;3.17;;;;;;;;;;10216778;28;20129;-71
2023/09/06 23:20:42;;;;;;;4.13;2.95;;;;;;;;;;10229639;28;20380;-69
2023/09/06 23:25:37;;;;;;;6.82;3.47;;;;;;;;;;10186321;28;20398;-71
2023/09/06 23:30:33;;;;;;;5.45;3.22;;;;;;;;;;10201162;28;20491;-68
2023/09/06 23:35:25;;;;;;;6.70;3.75;;;;;;;;;;10202233;28;20126;-71
2023/09/06 23:40:22;;;;;;;3.38;3.08;;;;;;;;;;10227089;28;20153;-69
2023/09/06 23:45:19;;;;;;;6.95;3.15;;;;;;;;;;10203963;28;20043;-71
2023/09/06 23:50:11;;;;;;;3.75;2.78;;;;;;;;;;10212621;28;20074;-71
2023/09/06 23:55:03;;;;;;;3.60;2.90;;;;;;;;;;10210286;28;20040;-70
2023/09/06 23:59:55;;;;;;;3.80;3.40;;;;;;;;;;10184557;28;20086;-69
